Time;durP1;ratioP1;P1;durP2;ratioP2;P2;SDS_P1;SDS_P2;PMS_P1;PMS_P2;Temp;Humidity;BMP_temperature;BMP_pressure;BME280_temperature;BME280_humidity;BME280_pressure;Samples;Min_cycle;Max_cycle;Signal;HPM_P1;HPM_P2
2022/08/10 00:01:29;;;;;;;6.25;5.50;;;;;;;26.13;36.72;99268.72;5111513;28;20051;-77
2022/08/10 00:03:55;;;;;;;8.15;6.53;;;;;;;26.14;36.68;99265.38;5115914;28;20027;-77
2022/08/10 00:06:21;;;;;;;8.60;6.10;;;;;;;26.17;36.83;99267.34;5113957;28;20075;-77
2022/08/10 00:08:47;;;;;;;9.95;6.13;;;;;;;26.20;36.87;99266.50;5112682;28;20035;-77
2022/08/10 00:11:12;;;;;;;11.57;5.90;;;;;;;26.24;36.97;99265.59;5114406;28;20128;-77
2022/08/10 00:13:38;;;;;;;11.45;5.80;;;;;;;26.16;37.27;99265.72;5114803;27;20168;-77
2022/08/10 00:16:04;;;;;;;11.57;6.68;;;;;;;25.47;38.69;99263.66;5113039;28;20032;-77
2022/08/10 00:18:30;;;;;;;14.35;6.22;;;;;;;25.51;38.69;99273.78;5113259;28;20115;-77
2022/08/10 00:20:55;;;;;;;6.97;5.80;;;;;;;25.84;38.13;99270.19;5113538;28;20019;-77
2022/08/10 00:23:21;;;;;;;12.45;6.28;;;;;;;25.70;38.25;99271.34;5114692;28;20519;-77
2022/08/10 00:25:46;;;;;;;11.35;5.68;;;;;;;25.79;38.03;99268.66;5114030;28;20031;-77
2022/08/10 00:28:12;;;;;;;9.52;5.72;;;;;;;25.74;38.20;99268.38;5113256;28;20167;-77
2022/08/10 00:30:38;;;;;;;6.88;6.00;;;;;;;25.63;38.02;99272.31;5113694;27;20059;-77
2022/08/10 00:33:03;;;;;;;6.47;5.25;;;;;;;25.46;38.00;99267.75;5114263;28;20019;-77
2022/08/10 00:35:29;;;;;;;9.23;5.75;;;;;;;25.21;38.39;99271.94;5114656;28;20416;-77
2022/08/10 00:37:54;;;;;;;9.48;4.95;;;;;;;25.18;38.33;99281.41;5114402;28;20024;-77
2022/08/10 00:40:20;;;;;;;9.23;5.57;;;;;;;25.22;38.14;99270.72;5113503;28;20088;-77
2022/08/10 00:42:46;;;;;;;5.72;4.93;;;;;;;24.96;38.88;99267.53;5113518;27;20027;-77
2022/08/10 00:45:11;;;;;;;15.30;5.65;;;;;;;24.93;38.60;99262.72;5113821;28;20026;-77
2022/08/10 00:47:36;;;;;;;26.35;6.63;;;;;;;24.93;38.13;99277.00;5114233;28;20031;-77
2022/08/10 00:50:05;;;;;;;14.45;6.15;;;;;;;25.13;38.00;99265.56;5112348;28;20030;-77
2022/08/10 00:52:31;;;;;;;9.75;6.18;;;;;;;25.54;37.60;99282.75;5112683;28;20450;-77
2022/08/10 00:54:57;;;;;;;15.40;5.80;;;;;;;25.79;37.27;99285.03;5112844;28;20471;-77
2022/08/10 00:57:24;;;;;;;7.55;5.53;;;;;;;25.64;37.79;99273.91;5111418;27;20035;-77
2022/08/10 00:59:50;;;;;;;11.82;5.18;;;;;;;25.40;38.42;99261.75;5113858;28;20023;-77
2022/08/10 01:02:16;;;;;;;8.32;5.38;;;;;;;25.38;37.96;99267.91;5112901;28;20031;-77
2022/08/10 01:04:41;;;;;;;10.85;6.25;;;;;;;25.64;38.02;99285.38;5113885;28;20566;-76
2022/08/10 01:07:30;;;;;;;6.40;5.32;;;;;;;25.65;38.42;99286.97;5112662;28;20516;-77
2022/08/10 01:10:11;;;;;;;6.80;5.53;;;;;;;25.27;39.18;99275.91;5113957;28;20023;-77
2022/08/10 01:13:05;;;;;;;10.50;6.15;;;;;;;24.73;41.13;99263.47;5112779;28;20107;-77
2022/08/10 01:15:46;;;;;;;10.02;6.03;;;;;;;24.28;41.70;99255.31;5093320;28;20028;-77
2022/08/10 01:18:29;;;;;;;7.65;5.30;;;;;;;24.25;41.17;99251.28;5093251;28;20027;-77
2022/08/10 01:21:25;;;;;;;6.50;5.25;;;;;;;24.10;40.77;99262.94;5093420;28;20542;-77
2022/08/10 01:24:15;;;;;;;9.05;4.88;;;;;;;23.93;40.89;99275.41;5091889;28;20020;-77
2022/08/10 01:26:40;;;;;;;;;;;;;;;24.05;40.53;99271.19;5104951;28;20114;-77
2022/08/10 01:29:31;;;;;;;6.75;5.50;;;;;;;24.06;40.47;99267.88;5108501;28;20010;-77
2022/08/10 01:32:02;;;;;;;9.23;5.10;;;;;;;24.06;40.31;99265.03;5114098;28;20020;-77
2022/08/10 01:34:51;;;;;;;5.32;4.82;;;;;;;23.91;41.13;99270.16;5114162;28;20386;-77
2022/08/10 01:37:22;;;;;;;6.63;4.88;;;;;;;23.89;41.17;99248.97;5111070;28;20027;-77
2022/08/10 01:39:52;;;;;;;8.30;4.93;;;;;;;23.99;40.94;99248.00;5113414;28;20024;-77
2022/08/10 01:42:22;;;;;;;7.80;4.38;;;;;;;24.18;40.00;99240.78;5112389;28;20038;-77
2022/08/10 01:45:01;;;;;;;9.13;5.05;;;;;;;24.22;39.82;99243.56;5111108;28;20034;-77
2022/08/10 01:50:39;;;;;;;14.85;5.35;;;;;;;24.48;39.10;99246.78;5112494;28;20421;-77
2022/08/10 01:53:17;;;;;;;8.07;5.47;;;;;;;24.52;39.34;99254.06;5110865;28;20070;-77
2022/08/10 01:55:43;;;;;;;12.50;5.40;;;;;;;24.46;39.95;99244.34;5111724;28;20023;-77
2022/08/10 01:58:12;;;;;;;8.23;5.43;;;;;;;24.52;40.12;99238.94;5111309;28;20020;-77
2022/08/10 02:00:40;;;;;;;7.03;4.70;;;;;;;24.67;40.31;99236.63;5106165;28;20559;-77
2022/08/10 02:03:09;;;;;;;7.68;5.15;;;;;;;24.60;39.98;99228.19;5108133;28;20459;-77
2022/08/10 02:05:39;;;;;;;6.50;5.47;;;;;;;24.36;40.50;99225.34;5112831;28;20080;-77
2022/08/10 02:08:10;;;;;;;10.13;5.47;;;;;;;24.22;40.50;99218.66;5111324;28;20032;-77
2022/08/10 02:10:39;;;;;;;9.93;5.78;;;;;;;24.35;40.34;99226.59;5112743;28;20084;-77
2022/08/10 02:13:05;;;;;;;9.18;5.80;;;;;;;24.39;40.47;99219.56;5110610;28;20436;-77
2022/08/10 02:15:33;;;;;;;6.68;5.07;;;;;;;24.30;40.65;99219.34;5111596;28;20063;-76
2022/08/10 02:18:01;;;;;;;11.10;5.65;;;;;;;24.35;40.96;99216.00;5111177;28;20413;-76
2022/08/10 02:20:42;;;;;;;8.77;5.35;;;;;;;24.44;40.67;99209.69;5110319;28;20483;-77
2022/08/10 02:23:14;;;;;;;7.88;6.10;;;;;;;24.61;40.38;99206.91;5096102;28;20028;-77
2022/08/10 02:25:41;;;;;;;15.82;5.38;;;;;;;24.62;40.37;99205.72;5111445;28;20031;-77
2022/08/10 02:28:08;;;;;;;9.10;5.13;;;;;;;24.70;40.08;99195.72;5109585;28;20080;-77
2022/08/10 02:30:35;;;;;;;7.35;5.38;;;;;;;24.76;39.97;99207.44;5110287;28;20413;-77
2022/08/10 02:33:02;;;;;;;10.93;5.32;;;;;;;24.46;40.42;99206.41;5111968;28;20397;-77
2022/08/10 02:35:29;;;;;;;7.78;4.97;;;;;;;24.54;40.21;99214.41;5112359;28;20027;-77
2022/08/10 02:38:02;;;;;;;7.95;4.97;;;;;;;24.83;39.31;99218.78;5111073;28;20111;-77
2022/08/10 02:40:31;;;;;;;6.07;5.10;;;;;;;24.87;39.45;99215.88;5112255;28;20098;-77
2022/08/10 02:43:27;;;;;;;9.70;5.47;;;;;;;24.74;39.47;99227.94;5110585;28;20114;-77
2022/08/10 02:46:00;;;;;;;8.57;4.63;;;;;;;25.01;39.79;99226.19;5111336;27;20029;-77
2022/08/10 02:48:50;;;;;;;9.55;5.90;;;;;;;25.04;39.89;99240.41;5110646;28;20027;-77
2022/08/10 02:51:45;;;;;;;9.85;5.45;;;;;;;24.93;40.14;99234.09;5110700;28;20055;-77
2022/08/10 02:54:17;;;;;;;8.02;5.10;;;;;;;24.71;40.62;99243.09;5105153;28;20034;-73
2022/08/10 02:56:55;;;;;;;6.00;5.40;;;;;;;24.77;40.42;99241.38;5107157;28;20028;-75
2022/08/10 02:59:38;;;;;;;7.55;5.30;;;;;;;24.86;40.16;99237.09;5102226;28;20058;-75
2022/08/10 03:02:07;;;;;;;7.35;5.72;;;;;;;24.94;39.62;99247.16;5111716;28;20082;-76
2022/08/10 03:05:02;;;;;;;17.35;5.68;;;;;;;25.04;39.42;99245.31;5112497;28;20047;-75
2022/08/10 03:07:31;;;;;;;42.97;7.63;;;;;;;24.83;40.38;99241.66;5108379;28;20036;-74
2022/08/10 03:09:58;;;;;;;6.68;4.95;;;;;;;24.63;40.55;99235.91;5111920;28;20035;-73
2022/08/10 03:12:25;;;;;;;6.80;5.00;;;;;;;24.59;40.27;99241.69;5111606;28;20028;-73
2022/08/10 03:14:52;;;;;;;10.65;5.15;;;;;;;24.60;39.73;99239.63;5110778;28;20028;-74
2022/08/10 03:17:19;;;;;;;9.95;5.47;;;;;;;24.51;39.51;99243.06;5110563;28;20024;-74
2022/08/10 03:19:46;;;;;;;8.70;5.47;;;;;;;24.38;40.25;99243.69;5109780;28;20019;-74
2022/08/10 03:22:14;;;;;;;20.33;5.50;;;;;;;24.46;40.00;99250.06;5111467;28;20431;-76
2022/08/10 03:24:41;;;;;;;31.08;6.95;;;;;;;24.26;40.45;99250.03;5110301;28;20572;-80
2022/08/10 03:27:08;;;;;;;9.70;6.45;;;;;;;24.34;40.25;99253.56;5110944;28;20058;-81
2022/08/10 03:29:35;;;;;;;18.85;6.53;;;;;;;24.42;39.88;99254.25;5098989;28;20023;-79
2022/08/10 03:32:03;;;;;;;9.98;5.38;;;;;;;24.52;39.94;99259.78;5107517;28;20110;-79
2022/08/10 03:34:29;;;;;;;10.25;4.95;;;;;;;24.83;39.40;99255.16;5103957;28;20024;-79
2022/08/10 03:36:55;;;;;;;30.50;6.68;;;;;;;24.97;39.37;99249.13;5091256;28;20039;-79
2022/08/10 03:39:21;;;;;;;14.98;6.07;;;;;;;25.07;39.38;99259.56;5094559;28;20537;-78
2022/08/10 03:41:51;;;;;;;22.92;6.35;;;;;;;25.17;39.26;99260.59;5107911;28;20135;-79
2022/08/10 03:44:23;;;;;;;28.23;6.40;;;;;;;25.22;39.47;99253.56;5113916;28;20020;-78
2022/08/10 03:46:51;;;;;;;20.25;6.47;;;;;;;25.21;39.29;99255.59;5114707;28;20031;-78
2022/08/10 03:49:18;;;;;;;24.92;6.07;;;;;;;25.26;39.08;99262.88;5113893;28;20405;-78
2022/08/10 03:51:47;;;;;;;11.43;5.20;;;;;;;25.16;39.13;99259.00;5113079;28;20020;-79
2022/08/10 03:54:15;;;;;;;24.58;6.88;;;;;;;25.23;39.19;99264.53;5114998;28;20439;-78
2022/08/10 03:56:41;;;;;;;18.20;6.13;;;;;;;25.22;39.50;99265.78;5113762;28;20024;-78
2022/08/10 03:59:09;;;;;;;25.38;5.82;;;;;;;25.27;40.08;99260.78;5114129;27;20039;-79
2022/08/10 04:01:35;;;;;;;21.63;6.88;;;;;;;25.46;39.79;99267.75;5113948;27;20126;-79
2022/08/10 04:04:01;;;;;;;13.95;5.00;;;;;;;25.47;39.39;99269.38;5113886;28;20024;-78
2022/08/10 04:06:27;;;;;;;54.90;9.48;;;;;;;25.64;40.07;99273.09;5113130;28;20379;-78
2022/08/10 04:08:52;;;;;;;16.20;5.85;;;;;;;25.66;39.07;99267.75;5112575;28;20288;-79
2022/08/10 04:11:18;;;;;;;11.85;4.55;;;;;;;25.72;38.60;99279.50;5098936;28;20612;-79
2022/08/10 04:13:43;;;;;;;11.40;5.03;;;;;;;25.68;38.81;99275.88;5108518;28;20027;-79
2022/08/10 04:16:09;;;;;;;11.85;4.82;;;;;;;25.72;38.91;99265.97;5114917;28;20043;-79
2022/08/10 04:18:34;;;;;;;14.70;5.07;;;;;;;25.55;38.88;99270.06;5112497;28;20492;-79
2022/08/10 04:21:05;;;;;;;8.90;4.93;;;;;;;25.61;38.29;99277.66;5112454;28;20024;-79
2022/08/10 04:23:35;;;;;;;13.20;5.80;;;;;;;25.50;39.00;99274.25;5113279;28;20055;-79
2022/08/10 04:26:01;;;;;;;7.03;4.78;;;;;;;25.31;38.63;99279.50;5112643;28;20022;-79
2022/08/10 04:28:27;;;;;;;10.35;5.18;;;;;;;25.28;38.77;99286.13;5114810;28;20031;-79
2022/08/10 04:30:54;;;;;;;6.03;4.25;;;;;;;25.33;38.66;99281.94;5113511;28;20477;-79
2022/08/10 04:33:23;;;;;;;5.75;4.47;;;;;;;25.37;38.03;99289.19;5114616;28;20107;-78
2022/08/10 04:35:50;;;;;;;9.38;4.80;;;;;;;25.50;37.73;99288.56;5112274;28;20093;-78
2022/08/10 04:38:18;;;;;;;6.38;4.43;;;;;;;25.53;37.79;99281.16;5114481;28;20035;-78
2022/08/10 04:40:45;;;;;;;8.73;4.35;;;;;;;25.62;37.56;99285.00;5113300;27;20012;-79
2022/08/10 04:43:11;;;;;;;6.55;4.93;;;;;;;25.63;37.74;99280.91;5102009;28;20024;-78
2022/08/10 04:45:37;;;;;;;9.43;4.15;;;;;;;25.71;37.40;99286.47;5096306;28;20030;-78
2022/08/10 04:48:02;;;;;;;5.53;4.93;;;;;;;25.62;37.37;99285.00;5109360;28;20047;-78
2022/08/10 04:50:28;;;;;;;9.52;5.00;;;;;;;25.63;37.56;99289.47;5112009;28;20043;-78
2022/08/10 04:52:53;;;;;;;8.20;4.85;;;;;;;25.56;37.70;99283.13;5112648;28;20031;-79
2022/08/10 04:55:19;;;;;;;8.27;4.90;;;;;;;25.59;37.74;99285.91;5110034;28;20027;-78
2022/08/10 04:57:44;;;;;;;7.10;4.43;;;;;;;25.46;37.87;99293.50;5110096;28;20493;-78
2022/08/10 05:00:10;;;;;;;8.55;4.95;;;;;;;25.41;37.83;99291.16;5112418;28;20137;-79
2022/08/10 05:02:36;;;;;;;5.53;5.03;;;;;;;25.33;38.13;99294.16;5096107;28;20089;-79
2022/08/10 05:05:02;;;;;;;7.00;4.82;;;;;;;25.44;38.08;99302.56;5102593;28;20462;-78
2022/08/10 05:07:27;;;;;;;5.15;4.10;;;;;;;25.56;38.05;99295.34;5112382;28;20057;-78
2022/08/10 05:09:58;;;;;;;14.82;5.00;;;;;;;25.51;38.02;99287.31;5112876;28;20492;-78
2022/08/10 05:12:24;;;;;;;10.25;5.10;;;;;;;25.60;38.15;99284.66;5112402;28;20484;-78
2022/08/10 05:14:50;;;;;;;13.00;5.22;;;;;;;25.73;37.93;99278.25;5113021;28;20031;-78
2022/08/10 05:17:17;;;;;;;11.02;5.68;;;;;;;25.73;37.82;99275.38;5110730;27;20537;-78
2022/08/10 05:19:43;;;;;;;10.30;4.78;;;;;;;25.67;38.11;99282.84;5111503;28;20095;-75
2022/08/10 05:22:08;;;;;;;7.60;4.55;;;;;;;25.63;38.07;99280.91;5111990;28;20114;-84
2022/08/10 05:24:37;;;;;;;8.18;4.57;;;;;;;25.67;38.06;99291.44;5113310;28;20038;-75
2022/08/10 05:27:03;;;;;;;7.40;5.10;;;;;;;25.61;38.39;99300.56;5111719;27;20046;-75
2022/08/10 05:29:29;;;;;;;11.75;4.82;;;;;;;25.52;38.70;99288.91;5111115;28;20027;-74
2022/08/10 05:31:55;;;;;;;7.68;5.05;;;;;;;25.47;38.76;99290.22;5108071;28;20382;-74
2022/08/10 05:34:25;;;;;;;9.02;4.90;;;;;;;25.51;38.70;99284.44;5108429;28;20031;-74
2022/08/10 05:36:54;;;;;;;8.18;5.13;;;;;;;25.61;38.48;99288.31;5110305;28;20508;-75
2022/08/10 05:39:22;;;;;;;7.35;4.82;;;;;;;25.71;38.29;99286.47;5109355;28;20028;-80
2022/08/10 05:41:51;;;;;;;10.00;5.88;;;;;;;25.86;38.28;99295.50;5105876;28;20062;-79
2022/08/10 05:44:19;;;;;;;8.07;4.60;;;;;;;25.96;38.20;99282.22;5110929;28;20106;-77
2022/08/10 05:46:45;;;;;;;9.95;5.15;;;;;;;26.15;37.93;99280.53;5112292;28;20531;-79
2022/08/10 05:49:10;;;;;;;11.35;5.25;;;;;;;26.16;37.56;99290.72;5108169;28;20061;-78
2022/08/10 05:51:36;;;;;;;6.47;4.90;;;;;;;26.18;37.54;99289.03;5111857;27;20038;-75
2022/08/10 05:54:02;;;;;;;5.90;4.57;;;;;;;26.26;37.96;99288.88;5105488;28;20406;-76
2022/08/10 05:56:29;;;;;;;11.00;5.35;;;;;;;26.33;37.63;99282.97;5112391;28;20034;-79
2022/08/10 05:58:55;;;;;;;5.75;5.03;;;;;;;26.26;37.71;99286.00;5099539;28;20026;-79
2022/08/10 06:01:23;;;;;;;7.43;5.13;;;;;;;26.21;37.29;99282.44;5093771;28;20378;-84
2022/08/10 06:03:58;;;;;;;9.52;5.72;;;;;;;26.55;37.35;99282.41;5109479;28;20020;-83
2022/08/10 06:06:26;;;;;;;8.35;4.90;;;;;;;26.42;37.56;99291.72;5112356;28;20037;-77
2022/08/10 06:08:52;;;;;;;7.13;5.55;;;;;;;26.45;37.31;99287.16;5112240;27;20051;-76
2022/08/10 06:11:18;;;;;;;9.57;4.90;;;;;;;26.56;37.04;99281.16;5112546;28;20098;-79
2022/08/10 06:16:34;;;;;;;5.95;5.25;;;;;;;26.82;37.53;99290.69;5113308;28;20035;-79
2022/08/10 06:19:00;;;;;;;14.13;6.53;;;;;;;26.84;36.88;99293.09;5110290;28;20038;-80
2022/08/10 06:21:27;;;;;;;11.70;5.85;;;;;;;26.51;37.45;99281.69;5112555;28;20028;-79
2022/08/10 06:23:54;;;;;;;9.55;6.47;;;;;;;26.84;36.76;99288.16;5112707;28;20027;-79
2022/08/10 06:26:20;;;;;;;9.80;6.68;;;;;;;26.78;36.88;99287.13;5095497;28;20148;-79
2022/08/10 06:29:09;;;;;;;12.10;6.22;;;;;;;26.96;36.83;99280.91;5091078;28;20032;-79
2022/08/10 06:31:42;;;;;;;12.32;6.63;;;;;;;27.09;36.79;99274.41;5092355;28;20085;-78
2022/08/10 06:34:10;;;;;;;9.70;6.63;;;;;;;26.96;36.43;99266.56;5090947;28;20047;-79
2022/08/10 06:36:37;;;;;;;16.25;7.95;;;;;;;27.07;36.22;99274.84;5090677;28;20043;-83
2022/08/10 06:39:03;;;;;;;18.05;8.20;;;;;;;27.13;35.94;99273.06;5092552;28;20035;-84
2022/08/10 06:41:32;;;;;;;17.27;8.48;;;;;;;27.14;35.73;99268.09;5109866;28;20024;-82
2022/08/10 06:44:07;;;;;;;15.45;9.63;;;;;;;27.31;35.92;99269.66;5112975;28;20023;-82
2022/08/10 06:46:36;;;;;;;21.92;8.88;;;;;;;27.50;35.30;99269.13;5112780;28;20532;-76
2022/08/10 06:49:04;;;;;;;15.07;8.55;;;;;;;27.53;35.39;99265.31;5112756;28;20034;-81
2022/08/10 06:51:33;;;;;;;12.50;8.18;;;;;;;27.42;35.67;99260.72;5104002;28;20036;-81
2022/08/10 06:54:04;;;;;;;9.50;7.25;;;;;;;27.60;34.99;99254.44;5094713;28;20092;-82
2022/08/10 06:56:34;;;;;;;12.35;7.43;;;;;;;27.79;34.75;99269.06;5095253;28;20486;-81
2022/08/10 06:59:07;;;;;;;25.98;7.60;;;;;;;27.73;35.37;99268.81;5093935;28;20034;-82
2022/08/10 07:01:35;;;;;;;15.73;7.75;;;;;;;28.02;34.88;99265.00;5092785;28;20051;-82
2022/08/10 07:04:07;;;;;;;12.88;8.43;;;;;;;28.15;34.51;99267.88;5093245;28;20020;-81
2022/08/10 07:06:35;;;;;;;16.75;7.55;;;;;;;28.20;33.87;99275.16;5107199;28;20155;-81
2022/08/10 07:09:04;;;;;;;8.25;6.72;;;;;;;28.12;34.00;99286.06;5118780;28;20498;-81
2022/08/10 07:11:31;;;;;;;10.48;7.00;;;;;;;28.19;34.51;99284.25;5113219;28;20066;-81
2022/08/10 07:13:59;;;;;;;11.32;6.55;;;;;;;28.29;33.79;99288.84;5138118;27;20035;-80
2022/08/10 07:16:27;;;;;;;16.42;6.50;;;;;;;28.49;33.54;99291.44;5109807;28;20522;-81
2022/08/10 07:18:55;;;;;;;7.05;6.05;;;;;;;28.29;33.31;99286.75;5116220;28;20070;-81
2022/08/10 07:21:22;;;;;;;8.75;5.72;;;;;;;28.55;32.67;99297.41;5110860;28;20507;-76
2022/08/10 07:23:50;;;;;;;13.85;6.28;;;;;;;28.81;32.68;99288.69;5110622;28;20015;-75
2022/08/10 07:26:18;;;;;;;11.00;7.03;;;;;;;28.71;32.02;99308.75;5112029;28;20026;-77
2022/08/10 07:28:44;;;;;;;12.27;6.70;;;;;;;28.86;31.77;99296.78;5110309;28;20032;-80
2022/08/10 07:31:11;;;;;;;8.75;5.18;;;;;;;29.14;31.39;99297.00;5107030;28;20031;-78
2022/08/10 07:33:38;;;;;;;15.45;6.88;;;;;;;29.38;31.34;99308.03;5096107;28;20069;-78
2022/08/10 07:36:05;;;;;;;14.75;5.60;;;;;;;29.61;30.52;99300.22;5101449;28;20509;-77
2022/08/10 07:38:34;;;;;;;15.40;5.50;;;;;;;29.84;30.30;99293.94;5089722;28;20048;-78
2022/08/10 07:41:01;;;;;;;6.55;5.07;;;;;;;29.96;29.81;99289.31;5097317;28;20106;-79
2022/08/10 07:43:33;;;;;;;8.93;5.07;;;;;;;29.88;29.50;99304.50;5089766;28;20487;-78
2022/08/10 07:46:03;;;;;;;11.63;5.32;;;;;;;29.92;29.87;99296.50;5097409;28;20027;-79
2022/08/10 07:48:33;;;;;;;7.78;4.47;;;;;;;30.14;29.35;99295.66;5106701;28;20127;-79
2022/08/10 07:51:01;;;;;;;12.23;4.95;;;;;;;30.14;29.75;99287.00;5090058;28;20024;-80
2022/08/10 07:53:37;;;;;;;9.90;5.40;;;;;;;30.22;29.38;99294.09;5095750;28;20024;-80
2022/08/10 07:56:04;;;;;;;7.93;5.13;;;;;;;30.19;29.12;99274.88;5094511;28;20016;-80
2022/08/10 07:58:37;;;;;;;9.57;5.13;;;;;;;29.84;29.38;99279.53;5092968;28;20529;-80
2022/08/10 08:01:02;;;;;;;8.63;4.88;;;;;;;29.81;29.36;99283.34;5103405;28;20048;-79
2022/08/10 08:03:30;;;;;;;24.95;6.07;;;;;;;29.90;29.37;99284.66;5116729;28;20035;-80
2022/08/10 08:05:58;;;;;;;13.15;5.55;;;;;;;30.03;29.18;99281.69;5116372;28;20110;-80
2022/08/10 08:08:26;;;;;;;15.57;5.85;;;;;;;30.23;28.87;99275.50;5115662;28;20553;-80
2022/08/10 08:10:52;;;;;;;13.82;5.93;;;;;;;30.63;30.10;99279.59;5111675;28;20024;-81
2022/08/10 08:13:20;;;;;;;13.23;5.63;;;;;;;30.77;28.69;99270.34;5111932;28;20027;-78
2022/08/10 08:15:47;;;;;;;24.73;6.50;;;;;;;30.45;28.88;99278.28;5109253;28;20028;-78
2022/08/10 08:18:15;;;;;;;5.97;5.13;;;;;;;30.89;28.79;99277.25;5105558;28;20028;-78
2022/08/10 08:20:43;;;;;;;6.75;4.80;;;;;;;31.08;28.86;99278.03;5103514;28;20036;-78
2022/08/10 08:23:11;;;;;;;9.88;5.18;;;;;;;31.19;28.31;99260.22;5101587;27;20125;-78
2022/08/10 08:25:36;;;;;;;7.75;4.82;;;;;;;31.48;27.87;99278.31;5111986;28;20087;-78
2022/08/10 08:28:04;;;;;;;11.52;4.90;;;;;;;31.40;27.81;99272.09;5115745;28;20027;-78
2022/08/10 08:30:31;;;;;;;10.57;4.68;;;;;;;31.58;27.69;99265.47;5110109;28;20036;-78
2022/08/10 08:32:58;;;;;;;11.68;5.20;;;;;;;31.56;27.25;99259.38;5109787;28;20092;-78
2022/08/10 08:35:25;;;;;;;27.10;6.30;;;;;;;31.52;27.57;99262.44;5113288;28;20081;-78
2022/08/10 08:37:52;;;;;;;9.32;4.97;;;;;;;31.65;26.93;99264.31;5112841;27;20034;-78
2022/08/10 08:40:28;;;;;;;8.27;6.32;;;;;;;31.50;28.03;99261.31;5111560;27;20110;-78
2022/08/10 08:43:19;;;;;;;5.88;4.63;;;;;;;31.63;28.01;99261.13;5104142;28;20020;-78
2022/08/10 08:46:27;;;;;;;15.75;5.68;;;;;;;31.14;27.53;99263.75;5097395;27;20079;-78
2022/08/10 08:49:38;;;;;;;5.93;4.97;;;;;;;31.38;27.91;99266.78;5110798;28;20030;-78
2022/08/10 08:52:25;;;;;;;5.32;4.82;;;;;;;31.64;27.61;99256.94;5112093;28;20028;-78
2022/08/10 08:55:00;;;;;;;7.13;5.20;;;;;;;31.72;27.62;99261.06;5106260;27;20031;-77
2022/08/10 08:58:03;;;;;;;12.80;5.28;;;;;;;31.68;28.52;99260.44;5142174;27;20019;-78
2022/08/10 09:00:55;;;;;;;7.38;4.75;;;;;;;31.61;27.28;99249.22;5111525;28;20047;-78
2022/08/10 09:03:53;;;;;;;10.40;5.10;;;;;;;31.97;27.18;99256.16;5111213;28;20066;-78
2022/08/10 09:07:08;;;;;;;6.80;4.75;;;;;;;31.78;27.08;99250.44;5119193;27;20024;-79
2022/08/10 09:09:47;;;;;;;11.43;5.35;;;;;;;32.11;26.88;99242.31;5054336;28;20400;-80
2022/08/10 09:12:42;;;;;;;26.52;6.38;;;;;;;32.19;27.47;99240.63;5040488;28;20102;-76
2022/08/10 09:15:17;;;;;;;8.90;4.80;;;;;;;31.98;27.09;99249.13;5088774;27;20040;-77
2022/08/10 09:17:52;;;;;;;11.05;5.22;;;;;;;32.29;27.37;99242.19;5109111;28;20019;-78
2022/08/10 09:20:32;;;;;;;6.65;5.07;;;;;;;32.15;26.56;99240.03;5105102;28;20027;-79
2022/08/10 09:23:27;;;;;;;6.50;4.82;;;;;;;32.44;26.24;99250.13;5108260;28;20116;-77
2022/08/10 09:25:58;;;;;;;8.75;5.63;;;;;;;32.74;25.88;99247.34;5108002;27;20043;-78
2022/08/10 09:28:26;;;;;;;25.88;6.13;;;;;;;32.54;25.56;99243.00;5107083;28;20020;-77
2022/08/10 09:31:03;;;;;;;8.15;5.18;;;;;;;32.29;25.61;99235.59;5106870;28;20024;-77
2022/08/10 09:33:32;;;;;;;14.43;5.07;;;;;;;32.65;25.87;99241.63;5105874;28;20050;-74
2022/08/10 09:36:18;;;;;;;5.93;4.90;;;;;;;32.67;25.33;99242.75;5112462;28;20023;-75
2022/08/10 09:39:01;;;;;;;8.00;5.80;;;;;;;32.40;25.62;99235.88;5114065;28;20126;-73
2022/08/10 09:41:48;;;;;;;7.35;4.70;;;;;;;32.70;26.53;99238.03;5093930;28;20026;-79
2022/08/10 09:44:38;;;;;;;10.00;4.85;;;;;;;32.80;25.25;99233.00;5101013;28;20015;-78
2022/08/10 09:47:21;;;;;;;6.15;4.70;;;;;;;32.71;25.36;99233.88;5111042;28;20027;-79
2022/08/10 09:50:11;;;;;;;10.63;4.80;;;;;;;32.28;25.16;99237.69;5111804;28;20527;-76
2022/08/10 09:52:48;;;;;;;18.15;4.93;;;;;;;31.83;25.02;99231.66;5107738;28;20486;-75
2022/08/10 09:55:26;;;;;;;11.75;4.47;;;;;;;32.65;25.76;99230.88;5111752;28;20030;-77
2022/08/10 09:58:11;;;;;;;28.35;5.53;;;;;;;33.06;25.62;99224.56;5106306;28;20024;-76
2022/08/10 10:00:44;;;;;;;8.35;4.45;;;;;;;33.57;25.04;99218.91;5105144;27;20136;-76
2022/08/10 10:03:26;;;;;;;8.65;4.07;;;;;;;33.23;22.84;99221.19;5103716;28;20378;-75
2022/08/10 10:06:32;;;;;;;9.40;3.90;;;;;;;32.95;23.76;99224.38;5121001;27;20020;-76
2022/08/10 10:09:28;;;;;;;10.60;4.10;;;;;;;32.76;23.19;99219.53;5065826;28;20114;-74
2022/08/10 10:12:24;;;;;;;6.30;3.95;;;;;;;32.45;24.51;99214.13;5087481;27;20039;-68
2022/08/10 10:15:22;;;;;;;10.00;4.07;;;;;;;33.36;23.96;99215.06;5104261;28;20419;-69
2022/08/10 10:18:06;;;;;;;11.05;4.40;;;;;;;33.74;23.86;99208.38;5101219;28;20185;-69
2022/08/10 10:20:34;;;;;;;5.05;3.92;;;;;;;33.73;23.22;99200.97;5105914;28;20032;-69
2022/08/10 10:23:12;;;;;;;5.28;4.28;;;;;;;32.88;24.34;99205.25;5105258;28;20035;-69
2022/08/10 10:26:05;;;;;;;8.27;4.60;;;;;;;32.74;24.88;99201.03;5105585;28;20053;-69
2022/08/10 10:28:40;;;;;;;5.40;3.92;;;;;;;32.91;24.64;99196.38;5108454;27;20067;-70
2022/08/10 10:31:24;;;;;;;7.57;4.57;;;;;;;32.67;24.78;99199.34;5102049;28;20035;-69
2022/08/10 10:34:12;;;;;;;9.73;4.10;;;;;;;32.21;24.71;99195.47;5105202;28;20521;-70
2022/08/10 10:36:41;;;;;;;9.05;4.18;;;;;;;31.88;25.58;99202.09;5102376;28;20036;-70
2022/08/10 10:39:11;;;;;;;15.27;5.32;;;;;;;32.43;25.09;99200.16;5106042;28;20039;-70
2022/08/10 10:41:55;;;;;;;;;;;;;;;33.05;25.86;99199.78;5099500;27;20035;-71
2022/08/10 10:44:51;;;;;;;6.22;4.60;;;;;;;33.52;24.66;99196.41;5111582;28;19923;-70
2022/08/10 10:47:16;;;;;;;20.10;4.22;;;;;;;33.67;24.65;99191.41;5108484;28;20502;-71
2022/08/10 10:49:55;;;;;;;8.77;4.50;;;;;;;33.82;23.73;99181.88;5110784;28;20118;-71
2022/08/10 10:53:02;;;;;;;5.38;4.55;;;;;;;33.77;24.89;99186.28;5109798;28;20024;-70
2022/08/10 10:55:36;;;;;;;7.70;5.22;;;;;;;33.86;24.70;99189.06;5092409;28;20036;-71
2022/08/10 10:58:21;;;;;;;5.60;4.07;;;;;;;33.90;23.98;99185.91;5107057;28;20496;-71
2022/08/10 11:00:56;;;;;;;9.18;4.88;;;;;;;33.73;24.12;99195.19;5111307;28;20043;-71
2022/08/10 11:03:45;;;;;;;12.43;4.40;;;;;;;33.78;24.57;99189.97;5108895;28;20049;-70
2022/08/10 11:06:36;;;;;;;13.85;4.82;;;;;;;33.64;25.20;99191.59;5108804;28;20035;-71
2022/08/10 11:09:07;;;;;;;6.05;4.13;;;;;;;33.88;24.50;99185.63;5111811;28;20110;-71
2022/08/10 11:11:40;;;;;;;6.97;4.53;;;;;;;34.07;24.27;99176.72;5105016;28;20034;-71
2022/08/10 11:14:12;;;;;;;11.15;3.88;;;;;;;34.20;24.33;99182.94;5100524;28;20114;-71
2022/08/10 11:16:47;;;;;;;5.05;4.25;;;;;;;34.17;23.71;99172.38;5111378;28;20023;-71
2022/08/10 11:19:16;;;;;;;11.98;4.70;;;;;;;33.97;24.22;99181.78;5109003;28;20157;-71
2022/08/10 11:21:50;;;;;;;8.50;4.25;;;;;;;33.85;24.08;99180.84;5108248;28;20033;-71
2022/08/10 11:24:24;;;;;;;8.00;5.10;;;;;;;33.91;23.70;99183.84;5101908;28;20020;-71
2022/08/10 11:27:01;;;;;;;5.25;4.35;;;;;;;33.84;24.18;99185.84;5102700;28;20096;-72
2022/08/10 11:29:46;;;;;;;6.25;3.72;;;;;;;33.88;24.16;99189.34;5104375;28;20027;-72
2022/08/10 11:32:17;;;;;;;7.70;4.47;;;;;;;33.84;24.29;99187.94;5100771;28;20031;-71
2022/08/10 11:34:49;;;;;;;9.00;4.40;;;;;;;33.93;24.45;99201.53;5101400;28;20117;-71
2022/08/10 11:37:25;;;;;;;4.40;3.78;;;;;;;33.55;25.11;99209.91;5101720;28;20114;-71
2022/08/10 11:40:14;;;;;;;10.50;4.43;;;;;;;33.59;24.83;99208.38;5110009;28;20048;-70
2022/08/10 11:43:07;;;;;;;9.77;4.80;;;;;;;33.49;24.69;99200.31;5107963;28;20031;-72
2022/08/10 11:45:36;;;;;;;8.32;4.55;;;;;;;33.31;24.88;99208.69;5106454;28;20032;-72
2022/08/10 11:48:11;;;;;;;5.80;4.88;;;;;;;33.22;25.12;99222.50;5109611;28;20028;-71
2022/08/10 11:50:48;;;;;;;4.53;3.80;;;;;;;33.16;25.32;99210.81;5107017;28;20033;-72
2022/08/10 11:53:35;;;;;;;10.40;4.88;;;;;;;33.32;25.84;99227.69;5105105;28;20031;-72
2022/08/10 11:56:01;;;;;;;12.80;4.13;;;;;;;33.39;26.38;99223.56;5102544;28;20093;-72
2022/08/10 12:01:25;;;;;;;7.28;4.18;;;;;;;33.13;25.72;99247.34;5104150;27;20082;-72
2022/08/10 12:03:51;;;;;;;5.30;3.97;;;;;;;32.67;26.07;99251.44;5104182;28;20032;-71
2022/08/10 12:06:19;;;;;;;7.88;3.22;;;;;;;32.69;24.84;99253.81;5109201;28;20027;-71